createdAt,value
2019-04-05T00:00:46.348Z,0
2019-04-05T00:01:46.432Z,0
2019-04-05T00:02:46.500Z,0
2019-04-05T00:03:46.593Z,0
2019-04-05T00:04:46.654Z,0
2019-04-05T00:05:46.755Z,0
2019-04-05T00:06:46.845Z,0
2019-04-05T00:07:46.934Z,0
2019-04-05T00:08:46.983Z,0
2019-04-05T00:09:47.079Z,0
2019-04-05T00:10:47.214Z,0
2019-04-05T00:11:47.267Z,0
2019-04-05T00:12:47.315Z,0
2019-04-05T00:13:47.427Z,0
2019-04-05T00:14:47.531Z,0
2019-04-05T00:15:47.652Z,0
2019-04-05T00:16:47.629Z,0
2019-04-05T00:17:47.727Z,0
2019-04-05T00:18:47.797Z,0
2019-04-05T00:19:47.924Z,0
2019-04-05T00:20:48.029Z,0
2019-04-05T00:21:48.121Z,0
2019-04-05T00:22:48.207Z,0
2019-04-05T00:23:48.270Z,0
2019-04-05T00:24:48.352Z,0
2019-04-05T00:25:48.503Z,0
2019-04-05T00:26:48.515Z,0
2019-04-05T00:27:48.612Z,0
2019-04-05T00:28:51.473Z,0
2019-04-05T00:29:48.794Z,0
2019-04-05T00:30:48.887Z,0
2019-04-05T00:31:49.002Z,0
2019-04-05T00:32:49.120Z,0
2019-04-05T00:33:49.236Z,0
2019-04-05T00:34:49.375Z,0
2019-04-05T00:35:49.489Z,0
2019-04-05T00:36:49.632Z,0
2019-04-05T00:37:49.717Z,0
2019-04-05T00:38:49.834Z,0
2019-04-05T00:39:49.925Z,0
2019-04-05T00:40:50.031Z,0
2019-04-05T00:41:50.132Z,0
2019-04-05T00:42:50.244Z,0
2019-04-05T00:43:50.339Z,0
2019-04-05T00:44:50.436Z,0
2019-04-05T00:45:50.535Z,0
2019-04-05T00:46:50.668Z,0
2019-04-05T00:47:50.759Z,0
2019-04-05T00:48:50.880Z,0
2019-04-05T00:49:51.019Z,0
2019-04-05T00:50:51.113Z,0
2019-04-05T00:51:51.253Z,0
2019-04-05T00:52:51.352Z,0
2019-04-05T00:53:51.428Z,0
2019-04-05T00:54:51.564Z,0
2019-04-05T00:55:51.660Z,0
2019-04-05T00:56:51.775Z,0
2019-04-05T00:57:51.872Z,0
2019-04-05T00:58:51.970Z,0
2019-04-05T00:59:52.040Z,0
2019-04-05T01:00:52.147Z,0
2019-04-05T01:01:52.257Z,0
2019-04-05T01:02:52.328Z,0
2019-04-05T01:03:52.389Z,0
2019-04-05T01:04:52.436Z,0
2019-04-05T01:05:52.569Z,0
2019-04-05T01:06:52.528Z,0
2019-04-05T01:07:52.655Z,0
2019-04-05T01:08:52.750Z,0
2019-04-05T01:09:52.877Z,0
2019-04-05T01:10:52.964Z,0
2019-04-05T01:11:53.065Z,0
2019-04-05T01:12:53.172Z,0
2019-04-05T01:13:53.254Z,0
2019-04-05T01:14:53.351Z,0
2019-04-05T01:15:53.437Z,0
2019-04-05T01:16:53.562Z,0
2019-04-05T01:17:53.662Z,0
2019-04-05T01:18:53.742Z,0
2019-04-05T01:19:54.817Z,0
2019-04-05T01:20:53.917Z,0
2019-04-05T01:21:54.046Z,0
2019-04-05T01:22:55.131Z,0
2019-04-05T01:23:54.215Z,0
2019-04-05T01:24:54.278Z,0
2019-04-05T01:25:54.367Z,0
2019-04-05T01:26:54.516Z,0
2019-04-05T01:27:54.617Z,0
2019-04-05T01:28:54.723Z,0
2019-04-05T01:29:54.837Z,0
2019-04-05T01:30:54.932Z,0
2019-04-05T01:31:55.061Z,0
2019-04-05T01:32:55.146Z,0
2019-04-05T01:33:55.240Z,0
2019-04-05T01:34:56.326Z,0
2019-04-05T01:35:55.416Z,0
2019-04-05T01:36:55.535Z,0
2019-04-05T01:37:55.647Z,0
2019-04-05T01:38:55.764Z,0
2019-04-05T01:39:55.829Z,0
2019-04-05T01:40:55.907Z,0
2019-04-05T01:41:56.033Z,0
2019-04-05T01:42:56.116Z,0
2019-04-05T01:43:56.218Z,0
2019-04-05T01:44:56.314Z,0
2019-04-05T01:45:56.395Z,0
2019-04-05T01:46:56.502Z,0
2019-04-05T01:47:56.583Z,0
2019-04-05T01:48:56.678Z,0
2019-04-05T01:49:56.780Z,0
2019-04-05T01:50:56.938Z,0
2019-04-05T01:51:57.034Z,0
2019-04-05T01:52:57.120Z,0
2019-04-05T01:53:57.188Z,0
2019-04-05T01:54:57.287Z,0
2019-04-05T01:55:57.382Z,0
2019-04-05T01:56:57.503Z,0
2019-04-05T01:57:57.603Z,0
2019-04-05T01:58:57.717Z,0
2019-04-05T01:59:57.830Z,0
2019-04-05T02:00:57.926Z,0
2019-04-05T02:01:58.056Z,0
2019-04-05T02:02:58.163Z,0
2019-04-05T02:03:58.229Z,0
2019-04-05T02:04:58.326Z,0
2019-04-05T02:05:58.374Z,0
2019-04-05T02:06:58.483Z,0
2019-04-05T02:07:58.578Z,0
2019-04-05T02:08:58.691Z,0
2019-04-05T02:09:58.782Z,0
2019-04-05T02:10:58.862Z,0
2019-04-05T02:11:59.042Z,0
2019-04-05T02:12:58.973Z,0
2019-04-05T02:13:59.066Z,0
2019-04-05T02:14:59.156Z,0
2019-04-05T02:16:05.911Z,0
2019-04-05T02:16:59.343Z,0
2019-04-05T02:17:59.437Z,0
2019-04-05T02:18:59.540Z,0
2019-04-05T02:19:59.629Z,0
2019-04-05T02:20:59.723Z,0
2019-04-05T02:21:59.947Z,0
2019-04-05T02:22:59.840Z,0
2019-04-05T02:23:59.942Z,0
2019-04-05T02:25:00.007Z,0
2019-04-05T02:26:00.080Z,0
2019-04-05T02:27:00.219Z,0
2019-04-05T02:28:00.292Z,0
2019-04-05T02:29:00.378Z,0
2019-04-05T02:30:00.469Z,0
2019-04-05T02:31:00.478Z,0
2019-04-05T02:32:01.605Z,0
2019-04-05T02:33:00.698Z,0
2019-04-05T02:34:00.793Z,0
2019-04-05T02:35:00.894Z,0
2019-04-05T02:36:01.019Z,0
2019-04-05T02:37:01.101Z,0
2019-04-05T02:38:01.222Z,0
2019-04-05T02:39:01.244Z,0
2019-04-05T02:40:01.349Z,0
2019-04-05T02:41:01.453Z,0
2019-04-05T02:42:01.563Z,0
2019-04-05T02:43:01.573Z,0
2019-04-05T02:44:01.670Z,0
2019-04-05T02:45:01.773Z,0
2019-04-05T02:46:01.866Z,0
2019-04-05T02:47:02.924Z,0
2019-04-05T02:48:02.052Z,0
2019-04-05T02:49:02.144Z,0
2019-04-05T02:50:02.331Z,0
2019-04-05T02:51:02.356Z,0
2019-04-05T02:52:02.440Z,0
2019-04-05T02:53:02.569Z,0
2019-04-05T02:54:02.661Z,0
2019-04-05T02:55:02.769Z,0
2019-04-05T02:56:03.365Z,0
2019-04-05T02:57:02.927Z,0
2019-04-05T02:58:03.070Z,0
2019-04-05T02:59:03.165Z,0
2019-04-05T03:00:03.246Z,0
2019-04-05T03:01:03.357Z,0
2019-04-05T03:02:03.481Z,0
2019-04-05T03:03:03.607Z,0
2019-04-05T03:04:03.690Z,0
2019-04-05T03:05:03.774Z,0
2019-04-05T03:06:03.871Z,0
2019-04-05T03:07:04.948Z,0
2019-04-05T03:08:04.086Z,0
2019-04-05T03:09:04.167Z,0
2019-04-05T03:10:04.266Z,0
2019-04-05T03:11:04.417Z,0
2019-04-05T03:12:04.508Z,0
2019-04-05T03:13:04.645Z,0
2019-04-05T03:14:04.787Z,0
2019-04-05T03:15:04.876Z,0
2019-04-05T03:16:05.010Z,0
2019-04-05T03:17:05.097Z,0
2019-04-05T03:18:05.095Z,0
2019-04-05T03:19:05.200Z,0
2019-04-05T03:20:05.281Z,0
2019-04-05T03:21:05.349Z,0
2019-04-05T03:22:05.456Z,0
2019-04-05T03:23:05.637Z,0
2019-04-05T03:24:05.596Z,0
2019-04-05T03:25:05.699Z,0
2019-04-05T03:26:05.811Z,0
2019-04-05T03:27:05.924Z,0
2019-04-05T03:28:06.053Z,0
2019-04-05T03:29:06.167Z,0
2019-04-05T03:30:06.281Z,0
2019-04-05T03:31:06.353Z,0
2019-04-05T03:32:06.473Z,0
2019-04-05T03:33:06.599Z,0
2019-04-05T03:34:06.729Z,0
2019-04-05T03:35:06.774Z,0
2019-04-05T03:36:06.866Z,0
2019-04-05T03:37:06.966Z,0
2019-04-05T03:38:07.111Z,0
2019-04-05T03:39:07.210Z,0
2019-04-05T03:40:07.359Z,0
2019-04-05T03:41:07.455Z,0
2019-04-05T03:42:07.548Z,0
2019-04-05T03:43:07.678Z,0
2019-04-05T03:44:07.790Z,0
2019-04-05T03:45:07.901Z,0
2019-04-05T03:46:07.917Z,0
2019-04-05T03:47:08.042Z,0
2019-04-05T03:48:08.200Z,0
2019-04-05T03:49:08.163Z,0
2019-04-05T03:50:08.321Z,0
2019-04-05T03:51:08.293Z,0
2019-04-05T03:52:08.400Z,0
2019-04-05T03:53:08.560Z,0
2019-04-05T03:54:08.582Z,0
2019-04-05T03:55:08.634Z,0
2019-04-05T03:56:08.742Z,0
2019-04-05T03:57:08.842Z,0
2019-04-05T03:58:08.995Z,0
2019-04-05T03:59:09.120Z,0
2019-04-05T04:00:09.213Z,0
2019-04-05T04:01:09.298Z,0
2019-04-05T04:02:09.397Z,0
2019-04-05T04:03:09.551Z,0
2019-04-05T04:04:09.487Z,0
2019-04-05T04:05:09.604Z,0
2019-04-05T04:06:09.748Z,0
2019-04-05T04:07:09.875Z,0
2019-04-05T04:08:10.055Z,0
2019-04-05T04:09:10.974Z,0
2019-04-05T04:10:10.052Z,0
2019-04-05T04:11:10.146Z,0
2019-04-05T04:12:10.264Z,0
2019-04-05T04:13:10.395Z,0
2019-04-05T04:14:11.502Z,0
2019-04-05T04:15:13.421Z,0
2019-04-05T04:16:10.672Z,0
2019-04-05T04:17:12.415Z,0
2019-04-05T04:18:10.857Z,0
2019-04-05T04:19:10.847Z,0
2019-04-05T04:20:10.953Z,0
2019-04-05T04:21:11.028Z,0
2019-04-05T04:22:11.145Z,0
2019-04-05T04:23:11.226Z,0
2019-04-05T04:24:11.368Z,0
2019-04-05T04:25:11.448Z,0
2019-04-05T04:26:11.541Z,0
2019-04-05T04:27:11.614Z,0
2019-04-05T04:28:11.725Z,0
2019-04-05T04:29:11.863Z,1
2019-04-05T04:30:11.980Z,1
2019-04-05T04:31:12.087Z,1
2019-04-05T04:32:12.205Z,1
2019-04-05T04:33:12.295Z,1
2019-04-05T04:34:12.337Z,2
2019-04-05T04:35:12.271Z,1
2019-04-05T04:36:13.157Z,1
2019-04-05T04:37:12.468Z,2
2019-04-05T04:38:12.575Z,2
2019-04-05T04:39:12.723Z,2
2019-04-05T04:40:12.856Z,3
2019-04-05T04:41:12.992Z,4
2019-04-05T04:42:13.106Z,5
2019-04-05T04:43:13.261Z,6
2019-04-05T04:44:13.399Z,8
2019-04-05T04:45:13.480Z,9
2019-04-05T04:46:13.583Z,10
2019-04-05T04:47:25.317Z,13
2019-04-05T04:48:14.775Z,13
2019-04-05T04:49:13.899Z,16
2019-04-05T04:50:13.999Z,18
2019-04-05T04:51:14.118Z,21
2019-04-05T04:52:14.220Z,22
2019-04-05T04:53:14.337Z,25
2019-04-05T04:54:14.477Z,25
2019-04-05T04:55:14.584Z,27
2019-04-05T04:56:14.692Z,30
2019-04-05T04:57:14.798Z,33
2019-04-05T04:58:14.901Z,37
2019-04-05T04:59:15.032Z,41
2019-04-05T05:00:15.036Z,45
2019-04-05T05:01:15.149Z,51
2019-04-05T05:02:15.263Z,54
2019-04-05T05:03:15.370Z,57
2019-04-05T05:04:15.536Z,60
2019-04-05T05:05:15.626Z,65
2019-04-05T05:06:15.722Z,70
2019-04-05T05:07:15.824Z,77
2019-04-05T05:08:15.940Z,84
2019-04-05T05:09:16.057Z,92
2019-04-05T05:10:16.166Z,99
2019-04-05T05:11:16.258Z,104
2019-04-05T05:12:16.355Z,109
2019-04-05T05:13:16.465Z,111
2019-04-05T05:14:16.603Z,115
2019-04-05T05:15:16.718Z,116
2019-04-05T05:16:17.810Z,116
2019-04-05T05:17:16.907Z,117
2019-04-05T05:18:18.004Z,120
2019-04-05T05:19:17.127Z,123
2019-04-05T05:20:17.246Z,128
2019-04-05T05:21:17.332Z,132
2019-04-05T05:22:17.443Z,135
2019-04-05T05:23:17.565Z,142
2019-04-05T05:24:17.821Z,154
2019-04-05T05:25:17.813Z,171
2019-04-05T05:26:17.843Z,192
2019-04-05T05:27:18.010Z,207
2019-04-05T05:28:18.088Z,218
2019-04-05T05:29:18.209Z,240
2019-04-05T05:30:18.337Z,251
2019-04-05T05:31:18.456Z,255
2019-04-05T05:32:18.563Z,259
2019-04-05T05:33:18.668Z,269
2019-04-05T05:34:18.847Z,283
2019-04-05T05:35:18.959Z,300
2019-04-05T05:36:19.070Z,328
2019-04-05T05:37:19.169Z,354
2019-04-05T05:38:19.183Z,367
2019-04-05T05:39:19.199Z,385
2019-04-05T05:40:19.201Z,425
2019-04-05T05:41:20.323Z,433
2019-04-05T05:42:19.466Z,460
2019-04-05T05:43:19.618Z,463
2019-04-05T05:44:19.824Z,491
2019-04-05T05:45:19.816Z,501
2019-04-05T05:46:19.801Z,525
2019-04-05T05:47:19.958Z,541
2019-04-05T05:48:20.029Z,586
2019-04-05T05:49:21.088Z,642
2019-04-05T05:50:20.125Z,646
2019-04-05T05:51:20.141Z,715
2019-04-05T05:52:20.210Z,726
2019-04-05T05:53:20.194Z,808
2019-04-05T05:54:20.371Z,826
2019-04-05T05:55:20.363Z,897
2019-04-05T05:56:21.440Z,927
2019-04-05T05:57:20.542Z,990
2019-04-05T05:58:20.604Z,1049
2019-04-05T05:59:20.675Z,1070
2019-04-05T06:00:21.707Z,1038
2019-04-05T06:01:21.731Z,1003
2019-04-05T06:02:20.771Z,1053
2019-04-05T06:03:20.831Z,1080
2019-04-05T06:04:20.918Z,1123
2019-04-05T06:05:20.966Z,1225
2019-04-05T06:06:21.015Z,1273
2019-04-05T06:07:21.044Z,1377
2019-04-05T06:08:21.091Z,1399
2019-04-05T06:09:21.221Z,1432
2019-04-05T06:10:21.275Z,1464
2019-04-05T06:11:21.331Z,1523
2019-04-05T06:12:21.381Z,1589
2019-04-05T06:13:21.454Z,1602
2019-04-05T06:14:21.569Z,1653
2019-04-05T06:15:21.650Z,1710
2019-04-05T06:16:21.711Z,1749
2019-04-05T06:17:21.748Z,1766
2019-04-05T06:18:21.799Z,1766
2019-04-05T06:19:21.880Z,1807
2019-04-05T06:20:21.990Z,1805
2019-04-05T06:21:22.032Z,1815
2019-04-05T06:22:22.077Z,1826
2019-04-05T06:23:32.937Z,1862
2019-04-05T06:24:23.165Z,1925
2019-04-05T06:25:22.239Z,2012
2019-04-05T06:26:22.311Z,2089
2019-04-05T06:27:22.354Z,2116
2019-04-05T06:28:22.392Z,2120
2019-04-05T06:29:22.452Z,2231
2019-04-05T06:30:22.543Z,2222
2019-04-05T06:31:22.614Z,2299
2019-04-05T06:32:22.718Z,2355
2019-04-05T06:33:31.176Z,2343
2019-04-05T06:34:23.766Z,2459
2019-04-05T06:35:22.839Z,2505
2019-04-05T06:36:22.885Z,2582
2019-04-05T06:37:22.939Z,2575
2019-04-05T06:38:22.985Z,2647
2019-04-05T06:39:23.040Z,2687
2019-04-05T06:40:23.112Z,2792
2019-04-05T06:41:24.136Z,2809
2019-04-05T06:42:23.178Z,2666
2019-04-05T06:43:23.235Z,2774
2019-04-05T06:44:23.289Z,2758
2019-04-05T06:45:23.360Z,2781
2019-04-05T06:46:23.424Z,2801
2019-04-05T06:47:23.459Z,2788
2019-04-05T06:48:23.506Z,2789
2019-04-05T06:49:23.552Z,2764
2019-04-05T06:50:23.653Z,2818
2019-04-05T06:51:23.700Z,2841
2019-04-05T06:52:23.758Z,2926
2019-04-05T06:53:23.807Z,2971
2019-04-05T06:54:23.848Z,2953
2019-04-05T06:55:23.950Z,2938
2019-04-05T06:56:24.011Z,2930
2019-04-05T06:57:24.057Z,2895
2019-04-05T06:58:28.794Z,2934
2019-04-05T06:59:24.129Z,2959
2019-04-05T07:00:24.136Z,3003
2019-04-05T07:01:24.175Z,2975
2019-04-05T07:02:24.233Z,2967
2019-04-05T07:03:24.308Z,2977
2019-04-05T07:04:24.372Z,3051
2019-04-05T07:05:24.454Z,3115
2019-04-05T07:06:24.535Z,3203
2019-04-05T07:07:24.588Z,3228
2019-04-05T07:08:24.698Z,3202
2019-04-05T07:09:24.737Z,3228
2019-04-05T07:10:25.842Z,3412
2019-04-05T07:11:24.909Z,3531
2019-04-05T07:12:24.950Z,3675
2019-04-05T07:13:27.263Z,3780
2019-04-05T07:14:25.040Z,3845
2019-04-05T07:15:25.141Z,4011
2019-04-05T07:16:25.185Z,3941
2019-04-05T07:17:25.243Z,3804
2019-04-05T07:18:32.863Z,3601
2019-04-05T07:19:26.423Z,3469
2019-04-05T07:20:25.495Z,3482
2019-04-05T07:21:25.541Z,3703
2019-04-05T07:22:35.797Z,4052
2019-04-05T07:23:26.593Z,4517
2019-04-05T07:24:25.681Z,4956
2019-04-05T07:25:25.778Z,4969
2019-04-05T07:26:25.837Z,4978
2019-04-05T07:27:25.939Z,4776
2019-04-05T07:28:25.983Z,4645
2019-04-05T07:29:26.029Z,5004
2019-04-05T07:30:28.697Z,5197
2019-04-05T07:31:27.133Z,5527
2019-04-05T07:32:26.176Z,5570
2019-04-05T07:33:26.218Z,5560
2019-04-05T07:34:26.257Z,5433
2019-04-05T07:35:33.095Z,4984
2019-04-05T07:36:26.334Z,5244
2019-04-05T07:37:26.406Z,5236
2019-04-05T07:38:26.467Z,4930
2019-04-05T07:39:26.511Z,5427
2019-04-05T07:40:26.592Z,5559
2019-04-05T07:41:26.645Z,5546
2019-04-05T07:42:26.686Z,5682
2019-04-05T07:43:26.732Z,5775
2019-04-05T07:44:26.788Z,5623
2019-04-05T07:45:26.857Z,5480
2019-04-05T07:46:26.912Z,5454
2019-04-05T07:47:26.955Z,5836
2019-04-05T07:48:27.012Z,5932
2019-04-05T07:49:28.052Z,5699
2019-04-05T07:50:27.128Z,5455
2019-04-05T07:51:27.173Z,5205
2019-04-05T07:52:27.235Z,5318
2019-04-05T07:53:27.314Z,5239
2019-04-05T07:54:27.397Z,4959
2019-04-05T07:55:27.492Z,5171
2019-04-05T07:56:27.570Z,5150
2019-04-05T07:57:27.615Z,5060
2019-04-05T07:58:27.681Z,4974
2019-04-05T07:59:27.739Z,4968
2019-04-05T08:00:27.834Z,4963
2019-04-05T08:01:27.881Z,4616
2019-04-05T08:02:27.922Z,4270
2019-04-05T08:03:27.985Z,3852
2019-04-05T08:04:28.036Z,4278
2019-04-05T08:05:28.158Z,4588
2019-04-05T08:06:28.244Z,4584
2019-04-05T08:07:28.334Z,4356
2019-04-05T08:08:28.414Z,4516
2019-04-05T08:09:29.457Z,3887
2019-04-05T08:10:28.792Z,3880
2019-04-05T08:11:28.520Z,4599
2019-04-05T08:12:28.572Z,5271
2019-04-05T08:13:28.619Z,5547
2019-04-05T08:14:28.666Z,5298
2019-04-05T08:15:28.774Z,5597
2019-04-05T08:16:28.861Z,5231
2019-04-05T08:17:28.909Z,4784
2019-04-05T08:18:28.969Z,4452
2019-04-05T08:19:29.080Z,4152
2019-04-05T08:20:29.318Z,5095
2019-04-05T08:21:29.348Z,4606
2019-04-05T08:22:32.153Z,3656
2019-04-05T08:23:29.471Z,3160
2019-04-05T08:24:29.604Z,3210
2019-04-05T08:25:29.699Z,3693
2019-04-05T08:26:30.753Z,4603
2019-04-05T08:27:29.864Z,5176
2019-04-05T08:28:29.968Z,5296
2019-04-05T08:29:30.051Z,4955
2019-04-05T08:30:30.205Z,5227
2019-04-05T08:31:30.283Z,4753
2019-04-05T08:32:30.395Z,4455
2019-04-05T08:33:30.398Z,5766
2019-04-05T08:34:30.441Z,6412
2019-04-05T08:35:30.495Z,7717
2019-04-05T08:36:32.697Z,9029
2019-04-05T08:37:30.689Z,10093
2019-04-05T08:38:30.741Z,10449
2019-04-05T08:39:31.777Z,10468
2019-04-05T08:40:30.917Z,9152
2019-04-05T08:41:30.991Z,8188
2019-04-05T08:42:31.037Z,7107
2019-04-05T08:43:31.103Z,6003
2019-04-05T08:44:31.167Z,5092
2019-04-05T08:45:31.212Z,4882
2019-04-05T08:46:31.298Z,4801
2019-04-05T08:47:31.360Z,5000
2019-04-05T08:48:31.395Z,5477
2019-04-05T08:49:31.434Z,5806
2019-04-05T08:50:31.505Z,5652
2019-04-05T08:51:31.600Z,5197
2019-04-05T08:52:31.660Z,4972
2019-04-05T08:53:31.708Z,4711
2019-04-05T08:54:33.295Z,4984
2019-04-05T08:55:31.783Z,5200
2019-04-05T08:56:31.892Z,5462
2019-04-05T08:57:31.972Z,5875
2019-04-05T08:58:33.452Z,5624
2019-04-05T08:59:32.049Z,5624
2019-04-05T09:00:32.114Z,5794
2019-04-05T09:01:32.242Z,5472
2019-04-05T09:02:32.287Z,5053
2019-04-05T09:03:32.388Z,4663
2019-04-05T09:04:32.444Z,4500
2019-04-05T09:05:33.474Z,4425
2019-04-05T09:06:32.560Z,4663
2019-04-05T09:07:32.608Z,4436
2019-04-05T09:08:32.662Z,4300
2019-04-05T09:09:32.715Z,4560
2019-04-05T09:10:32.772Z,4834
2019-04-05T09:11:32.841Z,4961
2019-04-05T09:12:32.894Z,5021
2019-04-05T09:13:32.951Z,5642
2019-04-05T09:14:33.052Z,6061
2019-04-05T09:15:33.094Z,6523
2019-04-05T09:16:33.177Z,6458
2019-04-05T09:17:33.236Z,6499
2019-04-05T09:18:33.285Z,6475
2019-04-05T09:19:33.340Z,6760
2019-04-05T09:20:33.411Z,7297
2019-04-05T09:21:33.509Z,7380
2019-04-05T09:22:33.555Z,7368
2019-04-05T09:23:33.597Z,7102
2019-04-05T09:24:33.675Z,6926
2019-04-05T09:25:33.698Z,6866
2019-04-05T09:26:33.812Z,6723
2019-04-05T09:27:33.859Z,6392
2019-04-05T09:28:33.909Z,5284
2019-04-05T09:29:33.963Z,4241
2019-04-05T09:30:34.001Z,3506
2019-04-05T09:31:34.108Z,3153
2019-04-05T09:32:36.434Z,2832
2019-04-05T09:33:35.248Z,3137
2019-04-05T09:34:34.291Z,3211
2019-04-05T09:35:34.337Z,3218
2019-04-05T09:36:34.427Z,3231
2019-04-05T09:37:35.486Z,3349
2019-04-05T09:38:34.624Z,3351
2019-04-05T09:39:34.678Z,3375
2019-04-05T09:40:34.800Z,3418
2019-04-05T09:41:34.878Z,3628
2019-04-05T09:42:34.977Z,3931
2019-04-05T09:43:35.047Z,3866
2019-04-05T09:44:35.073Z,3720
2019-04-05T09:45:35.116Z,3750
2019-04-05T09:46:45.831Z,3893
2019-04-05T09:47:36.243Z,3926
2019-04-05T09:48:35.278Z,4182
2019-04-05T09:49:36.821Z,4318
2019-04-05T09:50:35.352Z,4214
2019-04-05T09:51:35.436Z,4332
2019-04-05T09:52:35.564Z,4270
2019-04-05T09:53:35.624Z,4109
2019-04-05T09:54:35.694Z,4044
2019-04-05T09:55:35.778Z,4485
2019-04-05T09:56:35.829Z,4612
2019-04-05T09:57:35.917Z,4391
2019-04-05T09:58:35.978Z,3999
2019-04-05T09:59:36.051Z,3564
2019-04-05T10:00:36.104Z,3398
2019-04-05T10:01:36.145Z,3332
2019-04-05T10:02:36.236Z,3215
2019-04-05T10:03:36.308Z,3105
2019-04-05T10:04:36.385Z,3231
2019-04-05T10:05:36.494Z,3607
2019-04-05T10:06:36.584Z,4237
2019-04-05T10:07:36.675Z,4858
2019-04-05T10:08:37.714Z,5646
2019-04-05T10:09:36.777Z,5400
2019-04-05T10:10:36.839Z,5249
2019-04-05T10:11:36.904Z,5321
2019-04-05T10:12:37.003Z,5054
2019-04-05T10:13:37.044Z,4622
2019-04-05T10:14:37.096Z,4398
2019-04-05T10:15:37.159Z,4301
2019-04-05T10:16:37.206Z,4318
2019-04-05T10:17:37.315Z,4051
2019-04-05T10:18:37.369Z,3697
2019-04-05T10:19:49.119Z,3473
2019-04-05T10:20:39.009Z,3334
2019-04-05T10:21:37.474Z,3415
2019-04-05T10:22:37.569Z,3535
2019-04-05T10:23:37.628Z,3760
2019-04-05T10:24:37.698Z,4104
2019-04-05T10:25:37.714Z,4307
2019-04-05T10:26:37.749Z,4265
2019-04-05T10:27:37.850Z,4109
2019-04-05T10:28:37.892Z,4030
2019-04-05T10:29:37.935Z,3966
2019-04-05T10:30:38.974Z,3928
2019-04-05T10:31:38.010Z,3974
2019-04-05T10:32:38.144Z,3925
2019-04-05T10:33:38.182Z,3890
2019-04-05T10:34:38.240Z,3748
2019-04-05T10:35:38.306Z,3617
2019-04-05T10:36:38.346Z,3566
2019-04-05T10:37:38.417Z,3742
2019-04-05T10:38:38.476Z,4310
2019-04-05T10:39:38.567Z,5060
2019-04-05T10:40:38.624Z,5695
2019-04-05T10:41:38.679Z,5901
2019-04-05T10:42:38.788Z,5949
2019-04-05T10:43:38.836Z,5946
2019-04-05T10:44:38.886Z,5887
2019-04-05T10:45:38.933Z,5936
2019-04-05T10:46:38.987Z,5953
2019-04-05T10:47:39.061Z,5936
2019-04-05T10:48:39.124Z,6048
2019-04-05T10:49:39.180Z,6106
2019-04-05T10:50:39.226Z,6087
2019-04-05T10:51:39.267Z,6098
2019-04-05T10:52:39.344Z,6186
2019-04-05T10:53:39.410Z,6613
2019-04-05T10:54:39.442Z,6716
2019-04-05T10:55:39.462Z,6711
2019-04-05T10:56:39.554Z,6661
2019-04-05T10:57:39.677Z,5591
2019-04-05T10:58:39.748Z,4571
2019-04-05T10:59:39.835Z,3860
2019-04-05T11:00:40.897Z,3343
2019-04-05T11:01:39.975Z,2953
2019-04-05T11:02:40.076Z,2779
2019-04-05T11:03:40.118Z,3022
2019-04-05T11:04:40.201Z,3371
2019-04-05T11:05:40.293Z,3529
2019-04-05T11:06:40.356Z,3756
2019-04-05T11:07:40.558Z,3748
2019-04-05T11:08:40.496Z,3740
2019-04-05T11:09:40.552Z,3558
2019-04-05T11:10:40.604Z,3429
2019-04-05T11:11:40.642Z,3566
2019-04-05T11:12:40.744Z,3694
2019-04-05T11:13:41.787Z,3811
2019-04-05T11:14:40.817Z,3868
2019-04-05T11:15:40.855Z,4018
2019-04-05T11:16:40.904Z,4020
2019-04-05T11:17:42.562Z,3988
2019-04-05T11:18:40.951Z,3896
2019-04-05T11:19:40.998Z,3811
2019-04-05T11:20:41.031Z,3719
2019-04-05T11:21:41.097Z,3596
2019-04-05T11:22:42.121Z,3609
2019-04-05T11:23:41.199Z,3617
2019-04-05T11:24:41.253Z,3609
2019-04-05T11:25:41.319Z,3578
2019-04-05T11:26:41.368Z,3584
2019-04-05T11:27:41.438Z,3584
2019-04-05T11:28:41.521Z,3608
2019-04-05T11:29:41.572Z,3917
2019-04-05T11:30:41.689Z,4097
2019-04-05T11:31:41.760Z,4309
2019-04-05T11:32:42.792Z,4651
2019-04-05T11:33:41.852Z,5389
2019-04-05T11:34:41.937Z,5925
2019-04-05T11:35:41.990Z,6283
2019-04-05T11:36:42.032Z,6634
2019-04-05T11:37:42.082Z,6530
2019-04-05T11:38:43.144Z,6372
2019-04-05T11:39:42.172Z,5640
2019-04-05T11:40:42.266Z,5033
2019-04-05T11:41:42.336Z,4509
2019-04-05T11:42:42.423Z,4399
2019-04-05T11:43:42.544Z,4348
2019-04-05T11:44:42.580Z,4384
2019-04-05T11:45:43.617Z,4371
2019-04-05T11:46:42.641Z,4215
2019-04-05T11:47:42.724Z,4013
2019-04-05T11:48:43.810Z,3817
2019-04-05T11:49:42.832Z,3687
2019-04-05T11:50:42.875Z,3662
2019-04-05T11:51:43.197Z,3727
2019-04-05T11:52:43.002Z,3694
2019-04-05T11:53:43.120Z,3579
2019-04-05T11:54:43.751Z,3577
2019-04-05T11:55:46.207Z,3558
2019-04-05T11:56:43.255Z,3449
2019-04-05T11:57:43.307Z,3443
2019-04-05T11:58:44.393Z,3430
2019-04-05T11:59:43.430Z,3266
2019-04-05T12:00:43.531Z,3235
2019-04-05T12:01:43.576Z,3292
2019-04-05T12:02:43.632Z,3150
2019-04-05T12:03:43.697Z,3114
2019-04-05T12:04:43.735Z,2959
2019-04-05T12:05:43.798Z,2744
2019-04-05T12:06:43.885Z,2647
2019-04-05T12:07:43.973Z,2639
2019-04-05T12:08:44.048Z,2693
2019-04-05T12:09:45.904Z,2758
2019-04-05T12:10:44.285Z,2891
2019-04-05T12:11:46.334Z,2890
2019-04-05T12:12:44.362Z,2938
2019-04-05T12:13:47.316Z,3070
2019-04-05T12:14:44.492Z,3239
2019-04-05T12:15:44.563Z,3538
2019-04-05T12:16:44.616Z,3815
2019-04-05T12:17:44.671Z,4147
2019-04-05T12:18:44.748Z,4344
2019-04-05T12:19:44.846Z,4343
2019-04-05T12:20:49.654Z,4320
2019-04-05T12:21:45.917Z,4225
2019-04-05T12:22:44.981Z,4100
2019-04-05T12:23:45.058Z,4029
2019-04-05T12:24:47.407Z,4120
2019-04-05T12:25:45.176Z,4300
2019-04-05T12:26:46.224Z,4470
2019-04-05T12:27:45.268Z,4632
2019-04-05T12:28:46.364Z,4656
2019-04-05T12:29:45.403Z,4686
2019-04-05T12:30:45.969Z,4851
2019-04-05T12:31:45.517Z,5007
2019-04-05T12:32:46.552Z,4857
2019-04-05T12:33:46.950Z,4699
2019-04-05T12:34:45.672Z,4560
2019-04-05T12:35:45.704Z,4564
2019-04-05T12:36:46.710Z,4537
2019-04-05T12:37:50.352Z,4369
2019-04-05T12:38:46.930Z,4024
2019-04-05T12:39:45.970Z,3913
2019-04-05T12:40:46.182Z,3709
2019-04-05T12:41:46.047Z,3591
2019-04-05T12:42:46.089Z,3576
2019-04-05T12:43:46.180Z,3458
2019-04-05T12:44:46.215Z,3504
2019-04-05T12:45:46.255Z,3451
2019-04-05T12:46:46.359Z,3259
2019-04-05T12:47:46.372Z,3079
2019-04-05T12:48:46.606Z,2960
2019-04-05T12:49:46.538Z,2910
2019-04-05T12:50:46.584Z,3008
2019-04-05T12:51:47.623Z,3157
2019-04-05T12:52:46.647Z,3218
2019-04-05T12:53:47.678Z,3241
2019-04-05T12:54:50.390Z,3252
2019-04-05T12:55:46.772Z,3248
2019-04-05T12:56:47.808Z,3243
2019-04-05T12:57:48.477Z,3419
2019-04-05T12:58:46.863Z,3418
2019-04-05T12:59:47.929Z,3372
2019-04-05T13:00:46.939Z,3407
2019-04-05T13:01:47.969Z,3421
2019-04-05T13:02:50.275Z,3585
2019-04-05T13:03:47.031Z,3733
2019-04-05T13:04:48.385Z,3741
2019-04-05T13:05:47.143Z,3772
2019-04-05T13:06:48.178Z,3930
2019-04-05T13:07:47.195Z,3974
2019-04-05T13:08:47.251Z,3960
2019-04-05T13:09:47.390Z,3764
2019-04-05T13:10:48.030Z,3616
2019-04-05T13:11:48.459Z,3588
2019-04-05T13:12:47.502Z,3513
2019-04-05T13:13:48.529Z,3495
2019-04-05T13:14:47.635Z,3440
2019-04-05T13:15:48.668Z,3426
2019-04-05T13:16:49.600Z,3434
2019-04-05T13:17:47.730Z,3405
2019-04-05T13:18:47.788Z,3246
2019-04-05T13:19:48.861Z,3113
2019-04-05T13:20:48.909Z,2961
2019-04-05T13:21:49.886Z,2925
2019-04-05T13:22:49.038Z,3001
2019-04-05T13:23:48.098Z,3032
2019-04-05T13:24:48.228Z,3027
2019-04-05T13:25:48.263Z,3030
2019-04-05T13:26:48.316Z,3009
2019-04-05T13:27:48.403Z,3008
2019-04-05T13:28:49.147Z,2926
2019-04-05T13:29:49.152Z,2860
2019-04-05T13:30:49.343Z,2638
2019-04-05T13:31:49.265Z,2695
2019-04-05T13:32:52.398Z,2732
2019-04-05T13:33:48.656Z,2760
2019-04-05T13:34:48.739Z,2738
2019-04-05T13:35:48.769Z,2750
2019-04-05T13:36:48.834Z,2806
2019-04-05T13:37:49.893Z,2892
2019-04-05T13:38:54.867Z,2964
2019-04-05T13:39:49.977Z,3023
2019-04-05T13:40:50.007Z,3025
2019-04-05T13:41:50.044Z,3119
2019-04-05T13:42:50.076Z,3095
2019-04-05T13:43:50.118Z,3124
2019-04-05T13:44:50.169Z,2987
2019-04-05T13:45:49.203Z,2671
2019-04-05T13:46:49.248Z,2520
2019-04-05T13:47:49.298Z,2718
2019-04-05T13:48:49.348Z,2616
2019-04-05T13:49:49.421Z,2357
2019-04-05T13:50:49.505Z,2387
2019-04-05T13:51:49.557Z,2568